createdAt,value
2022-11-04T00:00:06.218Z,12.20
2022-11-04T00:10:06.324Z,12.00
2022-11-04T00:20:06.351Z,12.10
2022-11-04T00:30:06.161Z,11.50
2022-11-04T00:40:06.218Z,11.40
2022-11-04T00:50:06.209Z,12.40
2022-11-04T01:00:06.174Z,11.30
2022-11-04T01:10:06.352Z,11.10
2022-11-04T01:20:06.340Z,11.90
2022-11-04T01:30:06.190Z,10.80
2022-11-04T01:40:06.180Z,11.00
2022-11-04T01:50:06.203Z,11.10
2022-11-04T02:00:06.221Z,10.30
2022-11-04T02:10:06.192Z,9.80
2022-11-04T02:20:06.190Z,9.70
2022-11-04T02:30:06.225Z,9.50
2022-11-04T02:40:06.215Z,10.00
2022-11-04T02:50:06.221Z,10.20
2022-11-04T03:00:06.225Z,9.80
2022-11-04T03:10:06.234Z,8.80
2022-11-04T03:20:06.236Z,9.40
2022-11-04T03:30:06.297Z,10.50
2022-11-04T03:40:06.238Z,12.10
2022-11-04T03:50:06.230Z,10.80
2022-11-04T04:00:06.227Z,11.10
2022-11-04T04:10:06.261Z,10.30
2022-11-04T04:20:06.244Z,10.20
2022-11-04T04:30:06.251Z,8.00
2022-11-04T04:40:06.250Z,11.00
2022-11-04T04:50:06.261Z,11.70
2022-11-04T05:00:06.330Z,10.80
2022-11-04T05:10:06.249Z,10.70
2022-11-04T05:20:06.275Z,13.40
2022-11-04T05:30:06.270Z,11.50
2022-11-04T05:40:06.269Z,11.60
2022-11-04T05:50:06.274Z,12.70
2022-11-04T06:00:06.293Z,13.30
2022-11-04T06:10:06.291Z,14.70
2022-11-04T06:20:06.395Z,14.30
2022-11-04T06:30:06.279Z,15.40
2022-11-04T06:40:06.285Z,15.20
2022-11-04T06:50:06.291Z,14.00
2022-11-04T07:00:06.327Z,13.90
2022-11-04T07:10:06.304Z,14.60
2022-11-04T07:20:06.308Z,13.80
2022-11-04T07:30:06.320Z,14.10
2022-11-04T07:40:06.311Z,15.70
2022-11-04T07:50:10.759Z,15.00
2022-11-04T08:00:06.331Z,14.40
2022-11-04T08:10:06.437Z,14.40
2022-11-04T08:20:06.336Z,15.20
2022-11-04T08:30:06.334Z,15.10
2022-11-04T08:40:06.346Z,14.00
2022-11-04T08:50:06.337Z,15.00
2022-11-04T09:00:06.353Z,15.10
2022-11-04T09:10:06.375Z,14.10
2022-11-04T09:20:06.447Z,15.50
2022-11-04T09:30:06.356Z,14.30
2022-11-04T09:40:06.371Z,14.60
2022-11-04T09:50:06.378Z,19.60
2022-11-04T10:00:06.379Z,13.60
2022-11-04T10:10:06.385Z,13.00
2022-11-04T10:20:06.383Z,14.00
2022-11-04T10:40:06.383Z,24.00
2022-11-04T10:50:27.942Z,13.00
2022-11-04T11:00:06.396Z,11.10
2022-11-04T11:10:06.429Z,12.40
2022-11-04T11:20:06.405Z,12.60
2022-11-04T11:30:06.402Z,12.40
2022-11-04T11:40:06.407Z,13.10
2022-11-04T11:50:06.409Z,12.00
2022-11-04T12:10:09.974Z,12.90
2022-11-04T12:20:10.210Z,12.10
2022-11-04T12:30:06.424Z,12.60
2022-11-04T12:40:06.465Z,13.00
2022-11-04T12:50:06.448Z,12.40
2022-11-04T13:00:06.435Z,13.30
2022-11-04T13:10:06.446Z,12.20
2022-11-04T13:20:06.454Z,12.70
2022-11-04T13:30:06.484Z,12.60
2022-11-04T13:40:06.524Z,13.30
2022-11-04T13:50:06.455Z,12.20
2022-11-04T14:00:06.641Z,12.30
2022-11-04T14:10:06.518Z,13.30
2022-11-04T14:20:06.621Z,14.30
2022-11-04T14:30:06.536Z,13.50
2022-11-04T14:40:06.511Z,13.40
2022-11-04T14:50:06.495Z,12.90
2022-11-04T15:00:06.581Z,13.90
2022-11-04T15:10:06.576Z,13.70
2022-11-04T15:20:06.492Z,14.00
2022-11-04T15:30:06.512Z,13.60
2022-11-04T15:40:06.496Z,13.60
2022-11-04T15:50:06.512Z,15.60
2022-11-04T16:00:06.528Z,13.50
2022-11-04T16:10:09.728Z,13.50
2022-11-04T16:20:06.527Z,14.40
2022-11-04T16:30:06.524Z,18.40
2022-11-04T16:40:06.544Z,18.60
2022-11-04T16:50:06.547Z,20.60
2022-11-04T17:00:06.540Z,22.80
2022-11-04T17:10:06.544Z,23.50
2022-11-04T17:20:06.609Z,23.10
2022-11-04T17:30:06.551Z,21.30
2022-11-04T17:40:06.554Z,19.10
2022-11-04T17:50:06.551Z,20.70
2022-11-04T18:00:06.579Z,20.00
2022-11-04T18:10:06.570Z,20.50
2022-11-04T18:20:12.271Z,21.70
2022-11-04T18:30:06.657Z,22.20
2022-11-04T18:40:06.603Z,20.80
2022-11-04T19:30:06.621Z,19.00
2022-11-04T19:40:06.600Z,18.50
2022-11-04T19:50:06.607Z,19.70
2022-11-04T20:00:06.627Z,21.30
2022-11-04T20:10:06.682Z,20.40
2022-11-04T20:20:06.646Z,20.30
2022-11-04T20:30:06.715Z,18.10
2022-11-04T20:40:06.673Z,17.00
2022-11-04T20:50:06.614Z,16.60
2022-11-04T21:00:06.723Z,16.30
2022-11-04T21:10:06.742Z,13.40
2022-11-04T21:20:06.639Z,13.00
2022-11-04T21:30:06.637Z,14.70
2022-11-04T21:40:06.649Z,15.30
2022-11-04T21:50:06.652Z,15.70
2022-11-04T22:00:06.647Z,16.20
2022-11-04T22:10:06.655Z,17.10
2022-11-04T22:20:06.649Z,12.40
2022-11-04T22:30:06.666Z,12.40
2022-11-04T22:40:06.670Z,12.30
2022-11-04T22:50:06.672Z,14.70
2022-11-04T23:00:06.661Z,14.80
2022-11-04T23:10:06.694Z,14.70
2022-11-04T23:20:06.675Z,13.50
2022-11-04T23:30:06.681Z,17.20
2022-11-04T23:40:06.686Z,16.90
2022-11-04T23:50:06.678Z,18.00
